createdAt,value
2023-05-04T00:01:33.409Z,1.17
2023-05-04T00:04:01.856Z,1.10
2023-05-04T00:06:29.616Z,1.10
2023-05-04T00:08:57.223Z,1.10
2023-05-04T00:11:24.948Z,1.08
2023-05-04T00:13:52.519Z,0.90
2023-05-04T00:16:20.146Z,0.88
2023-05-04T00:18:47.874Z,1.23
2023-05-04T00:21:15.484Z,1.00
2023-05-04T00:23:43.336Z,0.93
2023-05-04T00:26:11.061Z,1.33
2023-05-04T00:28:38.635Z,0.90
2023-05-04T00:31:06.804Z,1.08
2023-05-04T00:33:34.488Z,0.95
2023-05-04T00:36:04.130Z,1.05
2023-05-04T00:38:31.711Z,0.90
2023-05-04T00:40:59.278Z,1.13
2023-05-04T00:43:27.045Z,0.80
2023-05-04T00:45:54.679Z,0.90
2023-05-04T00:48:22.261Z,0.80
2023-05-04T00:50:50.136Z,1.00
2023-05-04T00:53:17.664Z,1.30
2023-05-04T00:55:45.222Z,1.00
2023-05-04T00:58:12.881Z,0.70
2023-05-04T01:00:41.529Z,0.88
2023-05-04T01:03:10.526Z,0.98
2023-05-04T01:05:41.755Z,0.85
2023-05-04T01:08:14.134Z,0.90
2023-05-04T01:11:16.073Z,1.00
2023-05-04T01:13:43.835Z,1.05
2023-05-04T01:16:11.625Z,0.70
2023-05-04T01:18:39.397Z,1.00
2023-05-04T01:21:06.959Z,0.85
2023-05-04T01:23:34.576Z,1.08
2023-05-04T01:26:14.532Z,1.08
2023-05-04T01:29:01.333Z,1.05
2023-05-04T01:31:29.306Z,1.30
2023-05-04T01:33:57.217Z,1.13
2023-05-04T01:36:25.428Z,1.25
2023-05-04T01:38:56.555Z,1.30
2023-05-04T01:41:24.107Z,1.30
2023-05-04T01:43:51.698Z,1.48
2023-05-04T01:46:19.282Z,1.20
2023-05-04T01:48:46.814Z,1.40
2023-05-04T01:51:14.481Z,1.15
2023-05-04T01:53:42.078Z,1.00
2023-05-04T01:56:10.390Z,1.15
2023-05-04T01:58:38.027Z,1.30
2023-05-04T02:01:05.781Z,1.20
2023-05-04T02:03:33.620Z,1.30
2023-05-04T02:06:01.238Z,0.80
2023-05-04T02:08:28.818Z,1.10
2023-05-04T02:10:56.523Z,1.05
2023-05-04T02:13:24.856Z,1.00
2023-05-04T02:15:52.608Z,0.98
2023-05-04T02:18:20.340Z,0.93
2023-05-04T02:20:49.682Z,0.85
2023-05-04T02:23:17.184Z,0.80
2023-05-04T02:25:44.799Z,1.10
2023-05-04T02:28:12.377Z,1.20
2023-05-04T02:30:40.072Z,1.10
2023-05-04T02:33:08.105Z,1.10
2023-05-04T02:35:36.314Z,0.77
2023-05-04T02:38:06.057Z,0.90
2023-05-04T02:40:33.700Z,0.90
2023-05-04T02:43:01.525Z,0.98
2023-05-04T02:45:29.168Z,0.95
2023-05-04T02:47:56.822Z,0.98
2023-05-04T02:50:24.401Z,1.10
2023-05-04T02:53:17.536Z,1.13
2023-05-04T02:55:45.366Z,1.20
2023-05-04T02:58:19.980Z,1.08
2023-05-04T03:00:47.879Z,1.30
2023-05-04T03:03:15.478Z,1.42
2023-05-04T03:05:43.146Z,1.45
2023-05-04T03:08:11.827Z,1.80
2023-05-04T03:10:39.347Z,1.73
2023-05-04T03:13:07.034Z,1.83
2023-05-04T03:15:35.089Z,1.70
2023-05-04T03:18:02.936Z,1.80
2023-05-04T03:20:30.638Z,1.70
2023-05-04T03:23:01.038Z,1.50
2023-05-04T03:25:28.661Z,1.60
2023-05-04T03:27:57.335Z,1.27
2023-05-04T03:30:27.005Z,1.40
2023-05-04T03:32:58.129Z,1.30
2023-05-04T03:35:26.050Z,1.40
2023-05-04T03:37:56.387Z,1.38
2023-05-04T03:40:24.416Z,1.83
2023-05-04T03:42:54.090Z,1.80
2023-05-04T03:45:23.286Z,1.80
2023-05-04T03:47:52.312Z,1.70
2023-05-04T03:50:22.179Z,1.70
2023-05-04T03:52:50.337Z,1.70
2023-05-04T03:55:20.696Z,1.83
2023-05-04T03:57:50.892Z,1.77
2023-05-04T04:00:19.125Z,1.75
2023-05-04T04:02:54.724Z,2.30
2023-05-04T04:05:22.634Z,1.90
2023-05-04T04:07:51.992Z,1.90
2023-05-04T04:10:19.703Z,1.67
2023-05-04T04:12:47.292Z,1.75
2023-05-04T04:15:14.873Z,2.20
2023-05-04T04:17:42.449Z,1.80
2023-05-04T04:20:10.593Z,1.58
2023-05-04T04:22:39.722Z,1.70
2023-05-04T04:25:07.774Z,1.95
2023-05-04T04:27:36.668Z,1.80
2023-05-04T04:30:05.317Z,1.75
2023-05-04T04:32:34.083Z,1.77
2023-05-04T04:35:01.821Z,2.10
2023-05-04T04:37:29.905Z,1.90
2023-05-04T04:39:57.409Z,1.80
2023-05-04T04:42:24.983Z,1.70
2023-05-04T04:44:52.655Z,1.90
2023-05-04T04:47:20.188Z,2.13
2023-05-04T04:49:47.794Z,1.92
2023-05-04T04:52:41.354Z,1.90
2023-05-04T04:55:09.544Z,1.80
2023-05-04T04:57:37.362Z,2.35
2023-05-04T05:00:09.998Z,1.90
2023-05-04T05:02:37.944Z,1.70
2023-05-04T05:05:05.977Z,1.90
2023-05-04T05:07:33.690Z,2.38
2023-05-04T05:10:01.872Z,2.08
2023-05-04T05:12:29.828Z,2.03
2023-05-04T05:14:57.657Z,2.20
2023-05-04T05:17:25.180Z,1.95
2023-05-04T05:19:52.838Z,2.08
2023-05-04T05:22:20.368Z,1.85
2023-05-04T05:24:47.958Z,2.25
2023-05-04T05:27:15.790Z,1.95
2023-05-04T05:29:44.188Z,2.20
2023-05-04T05:32:11.815Z,2.25
2023-05-04T05:34:39.375Z,2.35
2023-05-04T05:37:07.166Z,2.60
2023-05-04T05:39:34.900Z,2.75
2023-05-04T05:42:02.668Z,2.30
2023-05-04T05:44:30.319Z,2.35
2023-05-04T05:46:57.917Z,2.88
2023-05-04T05:49:25.515Z,2.80
2023-05-04T05:51:53.077Z,3.60
2023-05-04T05:54:22.924Z,3.00
2023-05-04T05:59:35.503Z,3.08
2023-05-04T06:02:03.152Z,2.90
2023-05-04T06:04:30.801Z,2.63
2023-05-04T06:06:58.421Z,2.80
2023-05-04T06:09:26.046Z,2.92
2023-05-04T06:11:55.492Z,3.50
2023-05-04T06:14:23.256Z,3.10
2023-05-04T06:16:50.821Z,3.20
2023-05-04T06:19:18.360Z,3.72
2023-05-04T06:21:46.059Z,4.03
2023-05-04T06:24:13.670Z,3.83
2023-05-04T06:26:41.298Z,3.75
2023-05-04T06:29:08.832Z,3.67
2023-05-04T06:31:36.730Z,4.03
2023-05-04T06:34:04.510Z,4.05
2023-05-04T06:36:32.161Z,4.90
2023-05-04T06:38:59.774Z,4.00
2023-05-04T06:41:27.388Z,4.43
2023-05-04T06:43:57.473Z,4.47
2023-05-04T06:46:27.259Z,4.20
2023-05-04T06:48:54.820Z,4.00
2023-05-04T06:51:22.621Z,4.30
2023-05-04T06:53:50.772Z,4.05
2023-05-04T06:56:18.384Z,3.97
2023-05-04T06:58:45.973Z,4.18
2023-05-04T07:01:14.845Z,3.92
2023-05-04T07:03:44.743Z,4.05
2023-05-04T07:06:12.373Z,4.68
2023-05-04T07:08:39.934Z,4.88
2023-05-04T07:11:07.456Z,4.28
2023-05-04T07:13:35.029Z,4.75
2023-05-04T07:16:02.659Z,4.80
2023-05-04T07:18:30.316Z,4.43
2023-05-04T07:21:10.672Z,3.85
2023-05-04T07:23:45.465Z,4.65
2023-05-04T07:26:13.054Z,4.32
2023-05-04T07:28:43.725Z,4.90
2023-05-04T07:31:13.019Z,4.05
2023-05-04T07:33:41.035Z,4.25
2023-05-04T07:36:08.734Z,3.75
2023-05-04T07:38:36.577Z,3.67
2023-05-04T07:41:04.306Z,3.70
2023-05-04T07:43:31.873Z,3.50
2023-05-04T07:45:59.495Z,3.80
2023-05-04T07:48:27.083Z,3.28
2023-05-04T07:50:54.809Z,4.13
2023-05-04T07:53:22.422Z,3.70
2023-05-04T07:55:50.087Z,4.35
2023-05-04T07:58:18.135Z,4.10
2023-05-04T08:00:46.125Z,3.78
2023-05-04T08:03:13.727Z,3.63
2023-05-04T08:05:41.510Z,3.90
2023-05-04T08:08:09.658Z,4.40
2023-05-04T08:10:37.636Z,3.72
2023-05-04T08:13:06.129Z,3.75
2023-05-04T08:15:33.755Z,3.55
2023-05-04T08:18:01.365Z,3.22
2023-05-04T08:20:28.974Z,3.15
2023-05-04T08:22:56.721Z,3.53
2023-05-04T08:25:24.277Z,3.90
2023-05-04T08:27:51.831Z,3.58
2023-05-04T08:30:19.666Z,3.47
2023-05-04T08:32:48.425Z,3.53
2023-05-04T08:35:16.172Z,3.95
2023-05-04T08:37:43.715Z,3.42
2023-05-04T08:40:11.461Z,3.80
2023-05-04T08:42:40.377Z,3.70
2023-05-04T08:45:16.012Z,3.78
2023-05-04T08:47:44.938Z,3.88
2023-05-04T08:50:13.312Z,3.75
2023-05-04T08:52:46.356Z,3.75
2023-05-04T08:55:14.953Z,3.33
2023-05-04T08:57:43.510Z,3.58
2023-05-04T09:00:12.370Z,3.28
2023-05-04T09:02:40.263Z,3.53
2023-05-04T09:05:08.211Z,3.95
2023-05-04T09:07:36.103Z,3.10
2023-05-04T09:10:04.467Z,2.92
2023-05-04T09:12:32.925Z,3.00
2023-05-04T09:15:02.424Z,3.40
2023-05-04T09:17:30.337Z,3.33
2023-05-04T09:20:04.841Z,3.10
2023-05-04T09:22:32.606Z,3.27
2023-05-04T09:25:07.874Z,3.22
2023-05-04T09:27:36.797Z,3.17
2023-05-04T09:30:05.496Z,3.30
2023-05-04T09:32:54.498Z,3.22
2023-05-04T09:35:33.537Z,2.83
2023-05-04T09:38:01.906Z,3.45
2023-05-04T09:40:33.500Z,3.40
2023-05-04T09:43:01.285Z,3.90
2023-05-04T09:45:40.083Z,3.75
2023-05-04T09:48:20.163Z,3.75
2023-05-04T09:50:50.897Z,4.05
2023-05-04T09:53:20.667Z,4.30
2023-05-04T09:55:48.703Z,4.22
2023-05-04T09:58:16.815Z,3.88
2023-05-04T10:00:44.891Z,3.40
2023-05-04T10:03:14.355Z,3.53
2023-05-04T10:05:42.109Z,4.60
2023-05-04T10:08:09.913Z,4.55
2023-05-04T10:10:39.745Z,4.25
2023-05-04T10:13:07.303Z,4.00
2023-05-04T10:15:35.378Z,4.25
2023-05-04T10:18:02.893Z,5.18
2023-05-04T10:20:41.782Z,4.65
2023-05-04T10:23:12.671Z,4.82
2023-05-04T10:25:58.336Z,4.00
2023-05-04T10:28:38.368Z,3.67
2023-05-04T10:31:07.349Z,3.20
2023-05-04T10:33:41.468Z,3.50
2023-05-04T10:36:09.547Z,3.13
2023-05-04T10:38:37.684Z,3.70
2023-05-04T10:41:17.940Z,3.80
2023-05-04T10:43:52.930Z,4.25
2023-05-04T10:46:21.386Z,3.83
2023-05-04T10:48:58.192Z,4.57
2023-05-04T10:51:32.752Z,4.35
2023-05-04T10:54:06.588Z,4.45
2023-05-04T10:56:34.170Z,4.38
2023-05-04T10:59:10.336Z,4.50
2023-05-04T11:01:47.361Z,4.18
2023-05-04T11:04:22.236Z,3.95
2023-05-04T11:06:59.496Z,4.70
2023-05-04T11:09:28.170Z,4.10
2023-05-04T11:11:56.316Z,4.32
2023-05-04T11:14:27.332Z,4.60
2023-05-04T11:17:19.680Z,4.63
2023-05-04T11:19:54.852Z,4.35
2023-05-04T11:22:22.850Z,4.47
2023-05-04T11:24:50.598Z,5.30
2023-05-04T11:27:36.312Z,5.55
2023-05-04T11:30:05.094Z,4.47
2023-05-04T11:32:51.680Z,3.75
2023-05-04T11:35:24.917Z,4.50
2023-05-04T11:37:53.625Z,4.05
2023-05-04T11:40:23.209Z,4.82
2023-05-04T11:42:51.263Z,4.53
2023-05-04T11:45:22.051Z,4.50
2023-05-04T11:47:50.771Z,4.65
2023-05-04T11:50:19.459Z,4.28
2023-05-04T11:52:47.426Z,4.45
2023-05-04T11:55:31.163Z,4.78
2023-05-04T11:58:02.268Z,4.45
2023-05-04T12:00:37.364Z,4.80
2023-05-04T12:03:08.578Z,5.32
2023-05-04T12:05:36.902Z,4.50
2023-05-04T12:08:04.868Z,4.45
2023-05-04T12:10:35.328Z,5.30
2023-05-04T12:13:03.191Z,4.18
2023-05-04T12:15:32.057Z,4.80
2023-05-04T12:18:02.484Z,5.03
2023-05-04T12:20:31.021Z,4.38
2023-05-04T12:22:58.672Z,4.90
2023-05-04T12:25:26.292Z,4.68
2023-05-04T12:27:53.876Z,4.57
2023-05-04T12:30:22.087Z,4.20
2023-05-04T12:32:49.710Z,4.45
2023-05-04T12:35:17.308Z,4.20
2023-05-04T12:37:45.056Z,4.57
2023-05-04T12:40:27.225Z,4.35
2023-05-04T12:42:56.071Z,4.97
2023-05-04T12:45:23.989Z,5.10
2023-05-04T12:47:51.610Z,5.43
2023-05-04T12:50:19.235Z,4.68
2023-05-04T12:52:46.855Z,4.97
2023-05-04T12:55:14.750Z,4.60
2023-05-04T12:57:43.460Z,5.07
2023-05-04T13:00:11.938Z,4.88
2023-05-04T13:02:39.513Z,3.90
2023-05-04T13:05:07.789Z,4.60
2023-05-04T13:07:36.225Z,5.90
2023-05-04T13:10:04.008Z,4.15
2023-05-04T13:12:31.719Z,4.85
2023-05-04T13:14:59.478Z,4.22
2023-05-04T13:17:29.540Z,4.10
2023-05-04T13:19:57.243Z,3.85
2023-05-04T13:22:24.803Z,4.40
2023-05-04T13:24:52.377Z,4.60
2023-05-04T13:27:19.906Z,4.22
2023-05-04T13:29:47.584Z,4.30
2023-05-04T13:32:15.375Z,4.13
2023-05-04T13:34:43.556Z,4.25
2023-05-04T13:37:16.565Z,4.40
2023-05-04T13:39:44.427Z,4.75
2023-05-04T13:42:15.106Z,4.97
2023-05-04T13:44:45.206Z,5.68
2023-05-04T13:47:13.361Z,5.10
2023-05-04T13:49:40.943Z,5.18
2023-05-04T13:52:08.506Z,5.20
2023-05-04T13:54:37.113Z,3.90
2023-05-04T13:57:04.757Z,4.25
2023-05-04T13:59:33.038Z,4.75
2023-05-04T14:02:01.215Z,4.18
2023-05-04T14:04:28.870Z,4.78
2023-05-04T14:06:57.556Z,4.50
2023-05-04T14:09:26.417Z,4.00
2023-05-04T14:11:53.963Z,3.88
2023-05-04T14:14:22.142Z,3.83
2023-05-04T14:16:49.792Z,2.95
2023-05-04T14:19:17.418Z,4.45
2023-05-04T14:21:45.029Z,4.95
2023-05-04T14:24:12.845Z,4.65
2023-05-04T14:26:40.511Z,4.35
2023-05-04T14:29:08.311Z,4.13
2023-05-04T14:31:36.584Z,4.43
2023-05-04T14:34:04.551Z,5.03
2023-05-04T14:36:32.256Z,5.05
2023-05-04T14:39:01.521Z,4.45
2023-05-04T14:41:33.578Z,4.75
2023-05-04T14:44:01.799Z,4.28
2023-05-04T14:46:32.976Z,3.83
2023-05-04T14:49:02.688Z,4.28
2023-05-04T14:51:32.201Z,3.47
2023-05-04T14:53:59.786Z,3.38
2023-05-04T14:56:28.414Z,4.45
2023-05-04T14:58:57.277Z,4.07
2023-05-04T15:01:25.717Z,4.80
2023-05-04T15:03:53.681Z,4.50
2023-05-04T15:06:21.362Z,4.55
2023-05-04T15:08:48.956Z,4.50
2023-05-04T15:11:17.525Z,4.47
2023-05-04T15:13:46.540Z,4.20
2023-05-04T15:16:20.654Z,4.00
2023-05-04T15:18:48.248Z,3.03
2023-05-04T15:21:16.356Z,3.53
2023-05-04T15:23:55.887Z,3.83
2023-05-04T15:26:23.478Z,3.70
2023-05-04T15:28:52.715Z,3.65
2023-05-04T15:31:21.972Z,3.90
2023-05-04T15:33:49.765Z,3.85
2023-05-04T15:36:17.840Z,4.53
2023-05-04T15:38:45.889Z,4.63
2023-05-04T15:41:16.208Z,3.60
2023-05-04T15:43:43.785Z,4.20
2023-05-04T15:46:11.547Z,4.32
2023-05-04T15:48:39.158Z,3.53
2023-05-04T15:51:12.816Z,3.05
2023-05-04T15:53:40.617Z,3.65
2023-05-04T15:56:08.677Z,4.40
2023-05-04T15:58:36.365Z,4.35
2023-05-04T16:01:04.294Z,4.25
2023-05-04T16:03:33.370Z,4.82
2023-05-04T16:06:02.975Z,4.50
2023-05-04T16:08:30.816Z,3.78
2023-05-04T16:10:58.401Z,4.25
2023-05-04T16:13:26.066Z,3.63
2023-05-04T16:15:54.030Z,3.67
2023-05-04T16:18:21.847Z,4.65
2023-05-04T16:20:49.946Z,4.43
2023-05-04T16:23:18.356Z,4.07
2023-05-04T16:25:46.535Z,3.22
2023-05-04T16:28:14.120Z,4.05
2023-05-04T16:30:42.890Z,3.97
2023-05-04T16:33:10.568Z,3.65
2023-05-04T16:35:38.299Z,4.30
2023-05-04T16:38:06.076Z,4.30
2023-05-04T16:40:33.716Z,3.55
2023-05-04T16:43:01.291Z,3.65
2023-05-04T16:45:31.701Z,4.35
2023-05-04T16:47:59.461Z,3.83
2023-05-04T16:50:27.140Z,3.30
2023-05-04T16:52:54.891Z,3.83
2023-05-04T16:55:23.424Z,3.33
2023-05-04T16:57:51.206Z,3.80
2023-05-04T17:00:19.327Z,4.45
2023-05-04T17:02:49.936Z,4.50
2023-05-04T17:05:19.196Z,3.83
2023-05-04T17:07:47.001Z,4.82
2023-05-04T17:10:20.805Z,5.15
2023-05-04T17:12:48.436Z,5.32
2023-05-04T17:15:16.065Z,4.88
2023-05-04T17:17:43.644Z,4.75
2023-05-04T17:20:14.787Z,5.20
2023-05-04T17:22:46.547Z,4.60
2023-05-04T17:25:15.069Z,4.90
2023-05-04T17:27:43.979Z,4.35
2023-05-04T17:30:12.008Z,4.80
2023-05-04T17:32:39.812Z,4.00
2023-05-04T17:35:20.359Z,4.38
2023-05-04T17:37:54.525Z,4.60
2023-05-04T17:40:24.824Z,4.20
2023-05-04T17:42:52.347Z,4.50
2023-05-04T17:45:19.926Z,4.22
2023-05-04T17:47:47.659Z,3.67
2023-05-04T17:50:18.165Z,4.28
2023-05-04T17:52:45.802Z,4.10
2023-05-04T17:55:15.976Z,4.60
2023-05-04T17:57:43.582Z,4.15
2023-05-04T18:00:11.630Z,3.95
2023-05-04T18:02:39.533Z,4.53
2023-05-04T18:05:07.458Z,4.38
2023-05-04T18:07:35.090Z,4.45
2023-05-04T18:10:02.959Z,4.20
2023-05-04T18:12:30.638Z,4.15
2023-05-04T18:14:58.259Z,4.20
2023-05-04T18:17:34.802Z,4.28
2023-05-04T18:20:13.173Z,4.53
2023-05-04T18:22:41.182Z,4.07
2023-05-04T18:25:10.317Z,4.50
2023-05-04T18:28:03.131Z,4.47
2023-05-04T18:30:30.807Z,4.22
2023-05-04T18:33:08.500Z,4.28
2023-05-04T18:35:36.300Z,4.20
2023-05-04T18:41:49.111Z,4.05
2023-05-04T18:44:17.128Z,3.45
2023-05-04T18:46:44.784Z,4.47
2023-05-04T18:49:12.540Z,3.83
2023-05-04T18:51:41.717Z,4.10
2023-05-04T18:54:09.608Z,4.30
2023-05-04T18:56:37.218Z,4.05
2023-05-04T18:59:05.962Z,4.20
2023-05-04T19:01:43.806Z,4.30
2023-05-04T19:04:11.537Z,4.10
2023-05-04T19:06:39.031Z,4.15
2023-05-04T19:09:08.016Z,6.95
2023-05-04T19:11:35.877Z,6.10
2023-05-04T19:14:03.416Z,5.28
2023-05-04T19:16:31.104Z,4.85
2023-05-04T19:18:58.609Z,4.80
2023-05-04T19:21:27.672Z,7.10
2023-05-04T19:23:55.456Z,5.15
2023-05-04T19:26:23.424Z,5.43
2023-05-04T19:28:51.249Z,5.35
2023-05-04T19:31:18.886Z,5.20
2023-05-04T19:33:48.805Z,4.88
2023-05-04T19:36:17.197Z,5.28
2023-05-04T19:38:44.940Z,5.35
2023-05-04T19:41:13.829Z,4.93
2023-05-04T19:43:42.573Z,5.15
2023-05-04T19:46:10.330Z,5.32
2023-05-04T19:48:38.948Z,5.53
2023-05-04T19:51:06.547Z,5.20
2023-05-04T19:53:34.211Z,5.82
2023-05-04T19:56:01.793Z,5.57
2023-05-04T19:58:30.819Z,5.32
2023-05-04T20:00:58.789Z,5.50
2023-05-04T20:03:26.826Z,5.60
2023-05-04T20:06:06.915Z,5.88
2023-05-04T20:08:36.775Z,5.72
2023-05-04T20:11:04.320Z,5.45
2023-05-04T20:13:38.540Z,5.63
2023-05-04T20:16:06.264Z,5.53
2023-05-04T20:18:33.916Z,5.85
2023-05-04T20:21:01.687Z,5.38
2023-05-04T20:23:29.254Z,6.38
2023-05-04T20:25:56.951Z,5.88
2023-05-04T20:28:24.657Z,5.60
2023-05-04T20:30:52.846Z,6.00
2023-05-04T20:33:20.542Z,6.70
2023-05-04T20:35:48.700Z,5.80
2023-05-04T20:38:16.439Z,6.00
2023-05-04T20:40:44.527Z,6.40
2023-05-04T20:43:12.237Z,6.22
2023-05-04T20:45:42.532Z,5.63
2023-05-04T20:51:21.655Z,5.53
2023-05-04T20:51:56.224Z,6.35
2023-05-04T20:58:01.271Z,6.18
2023-05-04T21:00:30.608Z,6.43
2023-05-04T21:03:00.012Z,5.57
2023-05-04T21:05:30.274Z,6.85
2023-05-04T21:08:26.237Z,5.93
2023-05-04T21:10:54.294Z,6.88
2023-05-04T21:13:22.420Z,6.93
2023-05-04T21:15:50.539Z,6.93
2023-05-04T21:18:19.746Z,7.00
2023-05-04T21:20:48.640Z,6.82
2023-05-04T21:23:16.809Z,6.55
2023-05-04T21:25:45.253Z,6.53
2023-05-04T21:28:12.912Z,6.20
2023-05-04T21:30:43.780Z,6.47
2023-05-04T21:33:11.746Z,6.22
2023-05-04T21:35:39.519Z,7.15
2023-05-04T21:38:07.306Z,6.50
2023-05-04T21:40:35.196Z,6.97
2023-05-04T21:43:03.058Z,6.75
2023-05-04T21:45:33.880Z,6.25
2023-05-04T21:48:11.231Z,6.25
2023-05-04T21:53:46.100Z,6.53
2023-05-04T21:56:16.345Z,6.70
2023-05-04T21:58:44.079Z,6.78
2023-05-04T22:01:18.494Z,6.75
2023-05-04T22:03:49.150Z,6.60
2023-05-04T22:06:22.654Z,7.68
2023-05-04T22:08:50.339Z,7.18
2023-05-04T22:11:18.029Z,6.70
2023-05-04T22:13:45.962Z,7.65
2023-05-04T22:16:13.809Z,7.45
2023-05-04T22:26:47.981Z,7.10
2023-05-04T22:31:58.547Z,6.57
2023-05-04T22:34:26.168Z,6.88
2023-05-04T22:36:53.816Z,7.00
2023-05-04T22:39:28.658Z,7.03
2023-05-04T22:41:57.026Z,6.78
2023-05-04T22:44:24.748Z,8.25
2023-05-04T22:46:52.372Z,7.15
2023-05-04T22:49:20.764Z,8.13
2023-05-04T22:51:48.425Z,7.80
2023-05-04T22:54:16.121Z,8.23
2023-05-04T22:56:43.740Z,7.57
2023-05-04T22:59:11.660Z,7.85
2023-05-04T23:01:43.365Z,7.10
2023-05-04T23:04:11.612Z,6.57
2023-05-04T23:06:39.433Z,7.35
2023-05-04T23:09:07.120Z,7.55
2023-05-04T23:11:34.850Z,8.00
2023-05-04T23:14:02.490Z,8.90
2023-05-04T23:19:14.415Z,8.40
2023-05-04T23:21:42.166Z,8.25
2023-05-04T23:24:09.858Z,8.63
2023-05-04T23:26:37.664Z,8.48
2023-05-04T23:29:05.368Z,8.00
2023-05-04T23:31:33.136Z,8.68
2023-05-04T23:34:00.774Z,8.68
2023-05-04T23:36:28.410Z,9.05
2023-05-04T23:38:56.090Z,9.40
2023-05-04T23:41:24.270Z,9.20
2023-05-04T23:43:51.986Z,9.45
2023-05-04T23:46:19.808Z,9.00
2023-05-04T23:48:47.402Z,8.70
2023-05-04T23:51:15.050Z,9.13
2023-05-04T23:53:42.763Z,9.88
2023-05-04T23:56:10.388Z,9.05
2023-05-04T23:58:38.206Z,8.90
